sensor_id;sensor_type;location;lat;lon;timestamp;pressure;altitude;pressure_sealevel;temperature;humidity
9439;BME280;5176;42.622;25.386;2023-02-12T00:01:25;98062.09;;;-0.15;55.30
9439;BME280;5176;42.622;25.386;2023-02-12T00:03:53;98071.56;;;-0.12;54.80
9439;BME280;5176;42.622;25.386;2023-02-12T00:06:23;98071.53;;;-0.11;55.32
9439;BME280;5176;42.622;25.386;2023-02-12T00:08:53;98025.31;;;-0.31;54.55
9439;BME280;5176;42.622;25.386;2023-02-12T00:11:23;98043.31;;;-0.26;54.91
9439;BME280;5176;42.622;25.386;2023-02-12T00:13:51;98076.72;;;-0.15;54.81
9439;BME280;5176;42.622;25.386;2023-02-12T00:16:22;98062.19;;;-0.24;53.39
9439;BME280;5176;42.622;25.386;2023-02-12T00:18:51;98075.88;;;-0.16;53.50
9439;BME280;5176;42.622;25.386;2023-02-12T00:21:18;98073.38;;;-0.28;53.81
9439;BME280;5176;42.622;25.386;2023-02-12T00:23:47;98043.56;;;-0.58;55.21
9439;BME280;5176;42.622;25.386;2023-02-12T00:26:17;98077.00;;;-0.52;56.23
9439;BME280;5176;42.622;25.386;2023-02-12T00:28:44;98082.28;;;-0.72;57.59
9439;BME280;5176;42.622;25.386;2023-02-12T00:31:13;98084.84;;;-0.72;56.90
9439;BME280;5176;42.622;25.386;2023-02-12T00:33:41;98073.75;;;-0.83;57.33
9439;BME280;5176;42.622;25.386;2023-02-12T00:36:09;98073.75;;;-0.88;58.18
9439;BME280;5176;42.622;25.386;2023-02-12T00:38:39;98057.47;;;-0.87;58.37
9439;BME280;5176;42.622;25.386;2023-02-12T00:41:10;98055.75;;;-0.94;57.90
9439;BME280;5176;42.622;25.386;2023-02-12T00:43:38;98065.94;;;-0.74;57.96
9439;BME280;5176;42.622;25.386;2023-02-12T00:46:05;98069.34;;;-0.67;56.93
9439;BME280;5176;42.622;25.386;2023-02-12T00:48:33;98062.47;;;-0.64;57.64
9439;BME280;5176;42.622;25.386;2023-02-12T00:51:01;98069.28;;;-0.53;58.03
9439;BME280;5176;42.622;25.386;2023-02-12T00:53:29;98063.34;;;-0.68;57.62
9439;BME280;5176;42.622;25.386;2023-02-12T00:55:56;98065.81;;;-0.51;58.82
9439;BME280;5176;42.622;25.386;2023-02-12T00:58:25;98048.75;;;-0.64;58.85
9439;BME280;5176;42.622;25.386;2023-02-12T01:00:53;98045.28;;;-0.59;59.93
9439;BME280;5176;42.622;25.386;2023-02-12T01:03:20;98046.88;;;-0.47;60.48
9439;BME280;5176;42.622;25.386;2023-02-12T01:05:48;98028.09;;;-0.61;59.90
9439;BME280;5176;42.622;25.386;2023-02-12T01:08:15;98037.50;;;-0.54;59.71
9439;BME280;5176;42.622;25.386;2023-02-12T01:10:43;98006.72;;;-0.69;59.79
9439;BME280;5176;42.622;25.386;2023-02-12T01:13:12;98016.31;;;-0.93;61.43
9439;BME280;5176;42.622;25.386;2023-02-12T01:15:42;98027.38;;;-0.77;62.63
9439;BME280;5176;42.622;25.386;2023-02-12T01:18:10;98028.19;;;-0.70;62.91
9439;BME280;5176;42.622;25.386;2023-02-12T01:20:38;97982.84;;;-0.91;62.74
9439;BME280;5176;42.622;25.386;2023-02-12T01:23:06;98021.31;;;-0.70;62.08
9439;BME280;5176;42.622;25.386;2023-02-12T01:25:33;98015.19;;;-0.55;61.75
9439;BME280;5176;42.622;25.386;2023-02-12T01:28:00;98012.59;;;-0.50;61.55
9439;BME280;5176;42.622;25.386;2023-02-12T01:30:27;98020.28;;;-0.47;60.77
9439;BME280;5176;42.622;25.386;2023-02-12T01:32:56;98016.84;;;-0.48;60.59
9439;BME280;5176;42.622;25.386;2023-02-12T01:35:25;98003.97;;;-0.45;60.87
9439;BME280;5176;42.622;25.386;2023-02-12T01:37:52;97975.84;;;-0.72;58.84
9439;BME280;5176;42.622;25.386;2023-02-12T01:40:19;97999.56;;;-0.34;58.22
9439;BME280;5176;42.622;25.386;2023-02-12T01:42:47;97999.56;;;-0.32;57.74
9439;BME280;5176;42.622;25.386;2023-02-12T01:45:48;98000.41;;;-0.32;58.03
9439;BME280;5176;42.622;25.386;2023-02-12T01:48:21;97983.31;;;-0.42;58.26
9439;BME280;5176;42.622;25.386;2023-02-12T01:50:59;98004.63;;;-0.23;58.46
9439;BME280;5176;42.622;25.386;2023-02-12T01:53:32;97999.53;;;-0.29;58.67
9439;BME280;5176;42.622;25.386;2023-02-12T01:56:02;98007.31;;;-0.32;57.80
9439;BME280;5176;42.622;25.386;2023-02-12T01:58:36;98000.44;;;-0.36;57.50
9439;BME280;5176;42.622;25.386;2023-02-12T02:01:05;97979.06;;;-0.47;55.99
9439;BME280;5176;42.622;25.386;2023-02-12T02:03:36;97997.91;;;-0.38;55.55
9439;BME280;5176;42.622;25.386;2023-02-12T02:06:09;98001.34;;;-0.40;55.83
9439;BME280;5176;42.622;25.386;2023-02-12T02:08:39;97993.59;;;-0.40;57.33
9439;BME280;5176;42.622;25.386;2023-02-12T02:11:07;98013.47;;;-0.55;57.58
9439;BME280;5176;42.622;25.386;2023-02-12T02:13:49;97992.13;;;-0.66;58.91
9439;BME280;5176;42.622;25.386;2023-02-12T02:16:35;97986.13;;;-0.69;59.55
9439;BME280;5176;42.622;25.386;2023-02-12T02:19:10;97981.88;;;-0.76;59.99
9439;BME280;5176;42.622;25.386;2023-02-12T02:22:07;97977.56;;;-0.74;60.72
9439;BME280;5176;42.622;25.386;2023-02-12T02:24:52;97983.53;;;-0.66;60.08
9439;BME280;5176;42.622;25.386;2023-02-12T02:27:30;97982.69;;;-0.70;60.34
9439;BME280;5176;42.622;25.386;2023-02-12T02:30:21;97981.72;;;-0.55;59.87
9439;BME280;5176;42.622;25.386;2023-02-12T02:32:57;97979.09;;;-0.50;59.44
9439;BME280;5176;42.622;25.386;2023-02-12T02:35:34;97958.63;;;-0.66;59.34
9439;BME280;5176;42.622;25.386;2023-02-12T02:38:18;97982.66;;;-0.65;59.99
9439;BME280;5176;42.622;25.386;2023-02-12T02:40:52;97983.56;;;-0.74;60.95
9439;BME280;5176;42.622;25.386;2023-02-12T02:43:26;97977.53;;;-0.68;58.21
9439;BME280;5176;42.622;25.386;2023-02-12T02:45:58;97971.47;;;-0.60;59.01
9439;BME280;5176;42.622;25.386;2023-02-12T02:48:31;97975.69;;;-0.52;58.67
9439;BME280;5176;42.622;25.386;2023-02-12T02:51:02;97971.34;;;-0.47;59.37
9439;BME280;5176;42.622;25.386;2023-02-12T02:53:34;97979.88;;;-0.41;58.94
9439;BME280;5176;42.622;25.386;2023-02-12T02:56:06;97960.25;;;-0.54;58.18
9439;BME280;5176;42.622;25.386;2023-02-12T02:58:38;97985.13;;;-0.50;57.98
9439;BME280;5176;42.622;25.386;2023-02-12T03:01:11;97956.97;;;-0.73;58.34
9439;BME280;5176;42.622;25.386;2023-02-12T03:03:42;97974.91;;;-0.62;57.85
9439;BME280;5176;42.622;25.386;2023-02-12T03:06:15;97980.91;;;-0.63;58.08
9439;BME280;5176;42.622;25.386;2023-02-12T03:08:49;97975.72;;;-0.57;58.70
9439;BME280;5176;42.622;25.386;2023-02-12T03:11:22;97986.97;;;-0.69;58.99
9439;BME280;5176;42.622;25.386;2023-02-12T03:13:54;97992.09;;;-0.67;59.46
9439;BME280;5176;42.622;25.386;2023-02-12T03:16:25;97985.16;;;-0.56;59.30
9439;BME280;5176;42.622;25.386;2023-02-12T03:18:55;97952.66;;;-0.71;59.37
9439;BME280;5176;42.622;25.386;2023-02-12T03:21:29;97973.03;;;-0.43;58.67
9439;BME280;5176;42.622;25.386;2023-02-12T03:24:00;97943.97;;;-0.58;58.96
9439;BME280;5176;42.622;25.386;2023-02-12T03:26:37;97981.56;;;-0.37;58.81
9439;BME280;5176;42.622;25.386;2023-02-12T03:29:06;97953.38;;;-0.55;58.73
9439;BME280;5176;42.622;25.386;2023-02-12T03:31:42;97952.34;;;-0.36;59.03
9439;BME280;5176;42.622;25.386;2023-02-12T03:34:18;97963.53;;;-0.37;59.20
9439;BME280;5176;42.622;25.386;2023-02-12T03:36:53;97936.16;;;-0.45;59.34
9439;BME280;5176;42.622;25.386;2023-02-12T03:39:29;97931.00;;;-0.48;59.72
9439;BME280;5176;42.622;25.386;2023-02-12T03:42:02;97939.50;;;-0.37;59.51
9439;BME280;5176;42.622;25.386;2023-02-12T03:44:46;97957.38;;;-0.22;59.73
9439;BME280;5176;42.622;25.386;2023-02-12T03:47:22;97966.84;;;-0.24;59.04
9439;BME280;5176;42.622;25.386;2023-02-12T03:49:58;97963.50;;;-0.35;59.97
9439;BME280;5176;42.622;25.386;2023-02-12T03:52:28;97947.31;;;-0.49;59.54
9439;BME280;5176;42.622;25.386;2023-02-12T03:54:59;97955.03;;;-0.45;59.98
9439;BME280;5176;42.622;25.386;2023-02-12T03:57:29;97959.22;;;-0.33;59.98
9439;BME280;5176;42.622;25.386;2023-02-12T04:00:02;97966.94;;;-0.33;59.53
9439;BME280;5176;42.622;25.386;2023-02-12T04:02:32;97965.19;;;-0.26;58.94
9439;BME280;5176;42.622;25.386;2023-02-12T04:05:04;97967.63;;;-0.13;58.86
9439;BME280;5176;42.622;25.386;2023-02-12T04:07:34;97966.66;;;-0.04;58.84
9439;BME280;5176;42.622;25.386;2023-02-12T04:10:02;97964.88;;;0.03;58.95
9439;BME280;5176;42.622;25.386;2023-02-12T04:12:34;97973.50;;;0.00;58.48
9439;BME280;5176;42.622;25.386;2023-02-12T04:15:17;97983.88;;;-0.06;58.75
9439;BME280;5176;42.622;25.386;2023-02-12T04:17:53;97969.22;;;0.01;58.18
9439;BME280;5176;42.622;25.386;2023-02-12T04:20:26;97973.41;;;0.06;58.32
9439;BME280;5176;42.622;25.386;2023-02-12T04:23:06;97976.88;;;0.04;58.53
9439;BME280;5176;42.622;25.386;2023-02-12T04:25:52;97964.84;;;0.06;58.25
9439;BME280;5176;42.622;25.386;2023-02-12T04:28:39;97973.44;;;0.05;57.72
9439;BME280;5176;42.622;25.386;2023-02-12T04:31:14;97965.78;;;-0.03;57.74
9439;BME280;5176;42.622;25.386;2023-02-12T04:33:47;97976.91;;;0.02;57.93
9439;BME280;5176;42.622;25.386;2023-02-12T04:36:20;97970.13;;;-0.07;58.44
9439;BME280;5176;42.622;25.386;2023-02-12T04:38:52;97970.06;;;0.01;58.05
9439;BME280;5176;42.622;25.386;2023-02-12T04:41:22;97937.47;;;-0.08;57.48
9439;BME280;5176;42.622;25.386;2023-02-12T04:43:50;97967.41;;;0.06;57.98
9439;BME280;5176;42.622;25.386;2023-02-12T04:46:18;97975.91;;;0.17;58.54
9439;BME280;5176;42.622;25.386;2023-02-12T04:48:53;97979.31;;;0.17;58.23
9439;BME280;5176;42.622;25.386;2023-02-12T04:51:20;97977.00;;;-0.06;58.60
9439;BME280;5176;42.622;25.386;2023-02-12T04:53:48;97994.09;;;0.03;59.14
9439;BME280;5176;42.622;25.386;2023-02-12T04:56:15;97957.63;;;-0.46;60.20
9439;BME280;5176;42.622;25.386;2023-02-12T04:58:43;97990.84;;;-0.17;59.99
9439;BME280;5176;42.622;25.386;2023-02-12T05:01:10;97995.09;;;-0.12;60.54
9439;BME280;5176;42.622;25.386;2023-02-12T05:03:38;97966.06;;;-0.32;60.97
9439;BME280;5176;42.622;25.386;2023-02-12T05:06:07;97984.00;;;-0.18;60.30
9439;BME280;5176;42.622;25.386;2023-02-12T05:08:35;98000.16;;;-0.03;60.94
9439;BME280;5176;42.622;25.386;2023-02-12T05:11:03;98007.88;;;-0.03;60.64
9439;BME280;5176;42.622;25.386;2023-02-12T05:13:31;97989.03;;;-0.09;60.67
9439;BME280;5176;42.622;25.386;2023-02-12T05:15:58;98010.50;;;-0.07;59.70
9439;BME280;5176;42.622;25.386;2023-02-12T05:18:25;98007.03;;;0.00;60.61
9439;BME280;5176;42.622;25.386;2023-02-12T05:20:56;98002.72;;;0.01;60.30
9439;BME280;5176;42.622;25.386;2023-02-12T05:23:27;98018.06;;;0.11;60.52
9439;BME280;5176;42.622;25.386;2023-02-12T05:25:57;98031.84;;;0.09;60.18
9439;BME280;5176;42.622;25.386;2023-02-12T05:28:25;98026.66;;;0.10;60.08
9439;BME280;5176;42.622;25.386;2023-02-12T05:30:52;98030.06;;;0.15;60.24
9439;BME280;5176;42.622;25.386;2023-02-12T05:33:19;98030.91;;;0.17;59.96
9439;BME280;5176;42.622;25.386;2023-02-12T05:35:47;98036.16;;;0.05;60.39
9439;BME280;5176;42.622;25.386;2023-02-12T05:38:16;98031.16;;;-0.10;60.60
9439;BME280;5176;42.622;25.386;2023-02-12T05:40:44;98040.50;;;0.02;60.09
9439;BME280;5176;42.622;25.386;2023-02-12T05:43:12;98049.16;;;-0.06;60.97
9439;BME280;5176;42.622;25.386;2023-02-12T05:45:39;98049.06;;;0.05;60.87
9439;BME280;5176;42.622;25.386;2023-02-12T05:48:11;98061.00;;;0.15;60.18
9439;BME280;5176;42.622;25.386;2023-02-12T05:50:38;98059.28;;;0.13;60.40
9439;BME280;5176;42.622;25.386;2023-02-12T05:53:05;98079.06;;;0.12;59.60
9439;BME280;5176;42.622;25.386;2023-02-12T05:55:35;98081.56;;;0.21;60.05
9439;BME280;5176;42.622;25.386;2023-02-12T05:58:04;98024.16;;;0.03;59.99
9439;BME280;5176;42.622;25.386;2023-02-12T06:00:31;98077.94;;;0.42;58.68
9439;BME280;5176;42.622;25.386;2023-02-12T06:02:58;98070.22;;;0.38;58.23
9439;BME280;5176;42.622;25.386;2023-02-12T06:05:26;98065.91;;;0.38;58.79
9439;BME280;5176;42.622;25.386;2023-02-12T06:07:53;98077.03;;;0.48;58.27
9439;BME280;5176;42.622;25.386;2023-02-12T06:10:21;98034.16;;;0.33;58.54
9439;BME280;5176;42.622;25.386;2023-02-12T06:12:53;98076.81;;;0.65;58.37
9439;BME280;5176;42.622;25.386;2023-02-12T06:15:21;98077.63;;;0.70;57.87
9439;BME280;5176;42.622;25.386;2023-02-12T06:17:48;98081.00;;;0.76;57.23
9439;BME280;5176;42.622;25.386;2023-02-12T06:20:16;98075.88;;;0.72;56.43
9439;BME280;5176;42.622;25.386;2023-02-12T06:22:44;98081.91;;;0.71;55.94
9439;BME280;5176;42.622;25.386;2023-02-12T06:25:11;98052.72;;;0.66;55.76
9439;BME280;5176;42.622;25.386;2023-02-12T06:27:39;98079.03;;;0.97;55.52
9439;BME280;5176;42.622;25.386;2023-02-12T06:30:07;98084.16;;;1.00;56.87
9439;BME280;5176;42.622;25.386;2023-02-12T06:32:35;98087.44;;;1.13;54.63
9439;BME280;5176;42.622;25.386;2023-02-12T06:35:03;98086.56;;;1.14;54.61
9439;BME280;5176;42.622;25.386;2023-02-12T06:37:32;98092.66;;;1.06;55.16
9439;BME280;5176;42.622;25.386;2023-02-12T06:40:02;98088.38;;;1.05;55.05
9439;BME280;5176;42.622;25.386;2023-02-12T06:42:29;98083.38;;;0.95;56.21
9439;BME280;5176;42.622;25.386;2023-02-12T06:44:56;98093.44;;;1.13;56.11
9439;BME280;5176;42.622;25.386;2023-02-12T06:47:23;98096.94;;;1.11;56.54
9439;BME280;5176;42.622;25.386;2023-02-12T06:49:52;98101.28;;;1.05;58.07
9439;BME280;5176;42.622;25.386;2023-02-12T06:52:19;98106.38;;;1.12;57.97
9439;BME280;5176;42.622;25.386;2023-02-12T06:54:47;98099.44;;;1.17;57.60
9439;BME280;5176;42.622;25.386;2023-02-12T06:57:14;98109.75;;;1.18;57.76
9439;BME280;5176;42.622;25.386;2023-02-12T06:59:41;98099.38;;;1.23;57.91
9439;BME280;5176;42.622;25.386;2023-02-12T07:02:09;98094.22;;;1.20;56.53
9439;BME280;5176;42.622;25.386;2023-02-12T07:04:37;98103.47;;;1.38;56.93
9439;BME280;5176;42.622;25.386;2023-02-12T07:07:05;98103.31;;;1.50;55.87
9439;BME280;5176;42.622;25.386;2023-02-12T07:09:34;98122.94;;;1.63;55.65
9439;BME280;5176;42.622;25.386;2023-02-12T07:12:01;98124.53;;;1.72;56.11
9439;BME280;5176;42.622;25.386;2023-02-12T07:14:29;98116.75;;;1.73;55.96
9439;BME280;5176;42.622;25.386;2023-02-12T07:16:56;98124.38;;;1.82;55.73
9439;BME280;5176;42.622;25.386;2023-02-12T07:19:24;98128.63;;;1.85;56.01
9439;BME280;5176;42.622;25.386;2023-02-12T07:21:51;98124.34;;;1.84;56.59
9439;BME280;5176;42.622;25.386;2023-02-12T07:24:20;98126.03;;;1.88;57.38
9439;BME280;5176;42.622;25.386;2023-02-12T07:26:47;98081.56;;;1.64;56.96
9439;BME280;5176;42.622;25.386;2023-02-12T07:29:14;98120.69;;;1.97;57.02
9439;BME280;5176;42.622;25.386;2023-02-12T07:31:41;98120.69;;;1.99;56.47
9439;BME280;5176;42.622;25.386;2023-02-12T07:34:09;98104.38;;;1.95;56.49
9439;BME280;5176;42.622;25.386;2023-02-12T07:36:37;98117.88;;;2.12;56.72
9439;BME280;5176;42.622;25.386;2023-02-12T07:39:04;98121.22;;;2.19;56.60
9439;BME280;5176;42.622;25.386;2023-02-12T07:41:34;98109.06;;;2.24;55.97
9439;BME280;5176;42.622;25.386;2023-02-12T07:44:03;98098.72;;;2.24;56.12
9439;BME280;5176;42.622;25.386;2023-02-12T07:46:35;98113.81;;;2.47;56.51
9439;BME280;5176;42.622;25.386;2023-02-12T07:49:04;98110.25;;;2.56;55.62
9439;BME280;5176;42.622;25.386;2023-02-12T07:51:33;98104.84;;;2.66;54.60
9439;BME280;5176;42.622;25.386;2023-02-12T07:54:01;98100.34;;;2.78;54.40
9439;BME280;5176;42.622;25.386;2023-02-12T07:56:29;98062.53;;;2.69;54.22
9439;BME280;5176;42.622;25.386;2023-02-12T07:59:00;98101.31;;;3.15;53.76
9439;BME280;5176;42.622;25.386;2023-02-12T08:01:29;98103.50;;;3.35;53.08
9439;BME280;5176;42.622;25.386;2023-02-12T08:03:58;98122.97;;;3.53;52.12
9439;BME280;5176;42.622;25.386;2023-02-12T08:06:28;98074.97;;;3.37;51.69
9439;BME280;5176;42.622;25.386;2023-02-12T08:08:57;98108.50;;;3.83;51.07
9439;BME280;5176;42.622;25.386;2023-02-12T08:11:26;98121.75;;;4.08;51.09
9439;BME280;5176;42.622;25.386;2023-02-12T08:13:53;98114.34;;;4.27;50.38
9439;BME280;5176;42.622;25.386;2023-02-12T08:16:24;98119.13;;;4.44;49.89
9439;BME280;5176;42.622;25.386;2023-02-12T08:18:52;98120.75;;;4.48;48.88
9439;BME280;5176;42.622;25.386;2023-02-12T08:21:20;98122.34;;;4.53;48.16
9439;BME280;5176;42.622;25.386;2023-02-12T08:23:48;98120.59;;;4.54;48.01
9439;BME280;5176;42.622;25.386;2023-02-12T08:26:17;98126.22;;;4.71;47.54
9439;BME280;5176;42.622;25.386;2023-02-12T08:28:46;98078.19;;;4.55;47.92
9439;BME280;5176;42.622;25.386;2023-02-12T08:31:15;98126.47;;;4.93;47.48
9439;BME280;5176;42.622;25.386;2023-02-12T08:33:46;98129.94;;;4.93;47.41
9439;BME280;5176;42.622;25.386;2023-02-12T08:36:16;98127.44;;;4.90;47.41
9439;BME280;5176;42.622;25.386;2023-02-12T08:38:45;98129.88;;;4.97;47.00
9439;BME280;5176;42.622;25.386;2023-02-12T08:41:14;98130.09;;;4.87;46.85
9439;BME280;5176;42.622;25.386;2023-02-12T08:43:42;98129.19;;;4.90;46.43
9439;BME280;5176;42.622;25.386;2023-02-12T08:46:10;98134.13;;;4.99;46.61
9439;BME280;5176;42.622;25.386;2023-02-12T08:48:38;98121.28;;;4.93;46.45
9439;BME280;5176;42.622;25.386;2023-02-12T08:51:09;98144.28;;;5.08;46.10
9439;BME280;5176;42.622;25.386;2023-02-12T08:53:38;98151.81;;;5.17;45.62
9439;BME280;5176;42.622;25.386;2023-02-12T08:56:06;98151.47;;;5.30;45.03
9439;BME280;5176;42.622;25.386;2023-02-12T08:58:34;98142.44;;;5.43;45.47
9439;BME280;5176;42.622;25.386;2023-02-12T09:01:02;98156.78;;;5.55;45.05
9439;BME280;5176;42.622;25.386;2023-02-12T09:03:30;98154.56;;;5.72;44.30
9439;BME280;5176;42.622;25.386;2023-02-12T09:05:57;98170.13;;;5.73;44.36
9439;BME280;5176;42.622;25.386;2023-02-12T09:08:25;98167.81;;;5.94;44.85
9439;BME280;5176;42.622;25.386;2023-02-12T09:10:54;98171.75;;;6.07;43.95
9439;BME280;5176;42.622;25.386;2023-02-12T09:13:21;98182.25;;;6.32;43.44
9439;BME280;5176;42.622;25.386;2023-02-12T09:15:49;98180.63;;;6.81;43.06
9439;BME280;5176;42.622;25.386;2023-02-12T09:18:16;98172.34;;;6.95;42.38
9439;BME280;5176;42.622;25.386;2023-02-12T09:20:44;98183.56;;;7.22;42.64
9439;BME280;5176;42.622;25.386;2023-02-12T09:23:14;98186.19;;;7.22;41.86
9439;BME280;5176;42.622;25.386;2023-02-12T09:25:43;98180.09;;;7.21;41.38
9439;BME280;5176;42.622;25.386;2023-02-12T09:28:12;98178.84;;;7.08;42.04
9439;BME280;5176;42.622;25.386;2023-02-12T09:30:40;98176.94;;;7.13;42.26
9439;BME280;5176;42.622;25.386;2023-02-12T09:33:09;98178.25;;;7.00;41.49
9439;BME280;5176;42.622;25.386;2023-02-12T09:35:37;98192.72;;;6.83;41.81
9439;BME280;5176;42.622;25.386;2023-02-12T09:38:05;98191.13;;;6.79;42.24
9439;BME280;5176;42.622;25.386;2023-02-12T09:40:36;98155.94;;;6.66;42.40
9439;BME280;5176;42.622;25.386;2023-02-12T09:43:11;98155.09;;;6.66;41.85
9439;BME280;5176;42.622;25.386;2023-02-12T09:45:48;98173.06;;;6.73;42.33
9439;BME280;5176;42.622;25.386;2023-02-12T09:48:31;98175.66;;;7.00;42.34
9439;BME280;5176;42.622;25.386;2023-02-12T09:51:04;98180.78;;;7.03;42.02
9439;BME280;5176;42.622;25.386;2023-02-12T09:53:36;98169.22;;;7.10;41.67
9439;BME280;5176;42.622;25.386;2023-02-12T09:56:11;98172.25;;;6.98;41.28
9439;BME280;5176;42.622;25.386;2023-02-12T09:58:44;98177.78;;;7.14;41.10
9439;BME280;5176;42.622;25.386;2023-02-12T10:01:14;98177.06;;;7.33;40.86
9439;BME280;5176;42.622;25.386;2023-02-12T10:03:43;98182.81;;;7.67;40.19
9439;BME280;5176;42.622;25.386;2023-02-12T10:06:13;98130.22;;;7.77;39.81
9439;BME280;5176;42.622;25.386;2023-02-12T10:11:44;98189.81;;;8.57;38.31
9439;BME280;5176;42.622;25.386;2023-02-12T10:17:17;98185.19;;;9.45;38.90
9439;BME280;5176;42.622;25.386;2023-02-12T10:19:57;98185.50;;;9.58;36.49
9439;BME280;5176;42.622;25.386;2023-02-12T10:22:33;98184.25;;;9.85;37.17
9439;BME280;5176;42.622;25.386;2023-02-12T10:25:14;98187.44;;;9.92;37.49
9439;BME280;5176;42.622;25.386;2023-02-12T10:27:49;98183.16;;;10.08;36.48
9439;BME280;5176;42.622;25.386;2023-02-12T10:30:21;98186.72;;;10.26;35.78
9439;BME280;5176;42.622;25.386;2023-02-12T10:32:53;98189.81;;;10.15;36.00
9439;BME280;5176;42.622;25.386;2023-02-12T10:35:24;98171.91;;;10.44;36.26
9439;BME280;5176;42.622;25.386;2023-02-12T10:37:56;98191.94;;;10.45;35.05
9439;BME280;5176;42.622;25.386;2023-02-12T10:40:27;98203.56;;;10.39;35.91
9439;BME280;5176;42.622;25.386;2023-02-12T10:42:58;98204.47;;;10.19;35.94
9439;BME280;5176;42.622;25.386;2023-02-12T10:45:30;98212.41;;;10.18;35.93
9439;BME280;5176;42.622;25.386;2023-02-12T10:48:06;98223.97;;;10.32;36.27
9439;BME280;5176;42.622;25.386;2023-02-12T10:50:47;98208.16;;;10.15;36.01
9439;BME280;5176;42.622;25.386;2023-02-12T10:53:20;98229.75;;;10.20;35.50
9439;BME280;5176;42.622;25.386;2023-02-12T10:55:48;98230.44;;;10.25;35.26
9439;BME280;5176;42.622;25.386;2023-02-12T10:58:21;98237.41;;;10.06;34.50
9439;BME280;5176;42.622;25.386;2023-02-12T11:00:57;98215.75;;;9.83;36.20
9439;BME280;5176;42.622;25.386;2023-02-12T11:03:29;98250.78;;;10.00;36.14
9439;BME280;5176;42.622;25.386;2023-02-12T11:06:11;98255.53;;;10.10;36.47
9439;BME280;5176;42.622;25.386;2023-02-12T11:08:39;98251.72;;;9.99;36.25
9439;BME280;5176;42.622;25.386;2023-02-12T11:11:09;98248.16;;;9.61;36.14
9439;BME280;5176;42.622;25.386;2023-02-12T11:13:39;98245.38;;;9.24;36.85
9439;BME280;5176;42.622;25.386;2023-02-12T11:16:09;98265.06;;;9.13;36.66
9439;BME280;5176;42.622;25.386;2023-02-12T11:18:37;98260.56;;;9.16;36.89
9439;BME280;5176;42.622;25.386;2023-02-12T11:21:06;98257.63;;;9.24;37.49
9439;BME280;5176;42.622;25.386;2023-02-12T11:23:35;98241.19;;;9.20;37.22
9439;BME280;5176;42.622;25.386;2023-02-12T11:26:05;98263.38;;;9.32;36.43
9439;BME280;5176;42.622;25.386;2023-02-12T11:28:34;98263.78;;;9.01;36.67
9439;BME280;5176;42.622;25.386;2023-02-12T11:31:03;98255.81;;;8.84;36.82
9439;BME280;5176;42.622;25.386;2023-02-12T11:33:44;98260.78;;;8.68;37.27
9439;BME280;5176;42.622;25.386;2023-02-12T11:36:17;98260.22;;;8.60;37.75
9439;BME280;5176;42.622;25.386;2023-02-12T11:38:49;98260.16;;;8.61;37.77
9439;BME280;5176;42.622;25.386;2023-02-12T11:41:24;98268.22;;;8.57;37.77
9439;BME280;5176;42.622;25.386;2023-02-12T11:43:53;98256.41;;;8.46;38.27
9439;BME280;5176;42.622;25.386;2023-02-12T11:46:21;98256.41;;;8.46;38.86
9439;BME280;5176;42.622;25.386;2023-02-12T11:48:53;98261.97;;;8.81;37.95
9439;BME280;5176;42.622;25.386;2023-02-12T11:51:25;98272.47;;;9.01;37.32
9439;BME280;5176;42.622;25.386;2023-02-12T11:53:55;98264.56;;;8.83;37.49
9439;BME280;5176;42.622;25.386;2023-02-12T11:56:24;98269.03;;;9.01;37.81
9439;BME280;5176;42.622;25.386;2023-02-12T11:58:51;98266.25;;;9.26;37.75
9439;BME280;5176;42.622;25.386;2023-02-12T12:01:22;98243.53;;;9.06;37.09
9439;BME280;5176;42.622;25.386;2023-02-12T12:03:59;98264.53;;;9.25;37.02
9439;BME280;5176;42.622;25.386;2023-02-12T12:06:33;98274.84;;;9.08;37.25
9439;BME280;5176;42.622;25.386;2023-02-12T12:09:09;98269.59;;;8.87;37.22
9439;BME280;5176;42.622;25.386;2023-02-12T12:11:51;98266.50;;;9.20;37.94
9439;BME280;5176;42.622;25.386;2023-02-12T12:14:24;98253.41;;;8.99;37.53
9439;BME280;5176;42.622;25.386;2023-02-12T12:16:56;98261.25;;;9.20;38.00
9439;BME280;5176;42.622;25.386;2023-02-12T12:19:51;98273.44;;;9.41;37.41
9439;BME280;5176;42.622;25.386;2023-02-12T12:22:29;98278.03;;;9.36;36.85
9439;BME280;5176;42.622;25.386;2023-02-12T12:25:07;98283.63;;;9.27;36.79
9439;BME280;5176;42.622;25.386;2023-02-12T12:27:41;98281.28;;;9.62;37.10
9439;BME280;5176;42.622;25.386;2023-02-12T12:30:57;98290.72;;;9.45;36.60
9439;BME280;5176;42.622;25.386;2023-02-12T12:33:32;98281.50;;;9.37;37.08
9439;BME280;5176;42.622;25.386;2023-02-12T12:36:32;98286.13;;;9.30;37.01
9439;BME280;5176;42.622;25.386;2023-02-12T12:39:15;98296.84;;;9.24;37.14
9439;BME280;5176;42.622;25.386;2023-02-12T12:41:54;98295.28;;;9.20;37.34
9439;BME280;5176;42.622;25.386;2023-02-12T12:44:44;98301.25;;;9.01;37.08
9439;BME280;5176;42.622;25.386;2023-02-12T12:47:20;98310.19;;;8.96;38.14
9439;BME280;5176;42.622;25.386;2023-02-12T12:49:59;98316.13;;;9.21;37.65
9439;BME280;5176;42.622;25.386;2023-02-12T12:52:59;98314.50;;;9.19;37.40
9439;BME280;5176;42.622;25.386;2023-02-12T12:58:36;98327.72;;;8.72;38.91
9439;BME280;5176;42.622;25.386;2023-02-12T13:01:20;98335.81;;;8.66;39.30
9439;BME280;5176;42.622;25.386;2023-02-12T13:07:05;98337.56;;;8.65;38.58
9439;BME280;5176;42.622;25.386;2023-02-12T13:09:47;98326.84;;;8.50;38.38
9439;BME280;5176;42.622;25.386;2023-02-12T13:15:24;98330.63;;;8.17;39.19
9439;BME280;5176;42.622;25.386;2023-02-12T13:17:59;98340.84;;;8.24;38.53
9439;BME280;5176;42.622;25.386;2023-02-12T13:20:37;98334.41;;;8.09;38.91
9439;BME280;5176;42.622;25.386;2023-02-12T13:23:12;98333.25;;;8.17;39.33
9439;BME280;5176;42.622;25.386;2023-02-12T13:25:48;98344.78;;;8.35;38.85
9439;BME280;5176;42.622;25.386;2023-02-12T13:28:24;98326.41;;;8.13;38.72
9439;BME280;5176;42.622;25.386;2023-02-12T13:30:55;98351.69;;;8.13;38.15
9439;BME280;5176;42.622;25.386;2023-02-12T13:33:26;98360.03;;;7.99;38.66
9439;BME280;5176;42.622;25.386;2023-02-12T13:35:56;98367.97;;;7.96;38.84
9439;BME280;5176;42.622;25.386;2023-02-12T13:38:27;98371.44;;;7.97;39.64
9439;BME280;5176;42.622;25.386;2023-02-12T13:41:01;98342.81;;;7.69;39.67
9439;BME280;5176;42.622;25.386;2023-02-12T13:43:44;98378.25;;;8.01;39.95
9439;BME280;5176;42.622;25.386;2023-02-12T13:46:17;98370.66;;;8.18;39.48
9439;BME280;5176;42.622;25.386;2023-02-12T13:48:55;98380.84;;;8.26;40.00
9439;BME280;5176;42.622;25.386;2023-02-12T13:51:30;98389.31;;;8.07;40.03
9439;BME280;5176;42.622;25.386;2023-02-12T13:54:13;98393.31;;;7.92;39.40
9439;BME280;5176;42.622;25.386;2023-02-12T13:56:46;98396.56;;;7.74;40.94